Time;durP1;ratioP1;P1;durP2;ratioP2;P2;SDS_P1;SDS_P2;PMS_P1;PMS_P2;Temp;Humidity;BMP_temperature;BMP_pressure;BME280_temperature;BME280_humidity;BME280_pressure;Samples;Min_cycle;Max_cycle;Signal;HPM_P1;HPM_P2
2023/02/25 00:00:18;;;;;;;4.27;2.50;;;;;;;;;;4969944;28;20189;-91
2023/02/25 00:02:47;;;;;;;8.65;3.65;;;;;;;;;;4951300;28;20975;-93
2023/02/25 00:05:14;;;;;;;11.40;3.10;;;;;;;;;;4958343;28;20185;-91
2023/02/25 00:07:40;;;;;;;12.90;3.15;;;;;;;;;;4969213;28;20174;-92
2023/02/25 00:10:07;;;;;;;11.63;2.80;;;;;;;;;;4960770;28;20281;-91
2023/02/25 00:12:33;;;;;;;10.40;3.22;;;;;;;;;;4964428;28;20472;-89
2023/02/25 00:14:59;;;;;;;2.17;1.98;;;;;;;;;;4961616;28;20182;-91
2023/02/25 00:17:25;;;;;;;6.23;2.90;;;;;;;;;;4960563;28;20296;-91
2023/02/25 00:19:51;;;;;;;14.93;3.05;;;;;;;;;;4958257;28;20461;-90
2023/02/25 00:22:18;;;;;;;7.60;2.53;;;;;;;;;;4961894;28;20571;-92
2023/02/25 00:24:44;;;;;;;5.25;2.22;;;;;;;;;;4972294;28;20419;-90
2023/02/25 00:27:10;;;;;;;8.30;2.33;;;;;;;;;;4961757;28;20280;-92
2023/02/25 00:29:36;;;;;;;9.55;3.72;;;;;;;;;;4961319;28;20449;-92
2023/02/25 00:32:02;;;;;;;8.40;3.03;;;;;;;;;;4995904;28;20252;-91
2023/02/25 00:34:28;;;;;;;4.43;2.33;;;;;;;;;;4999319;28;20536;-90
2023/02/25 00:36:54;;;;;;;7.90;2.23;;;;;;;;;;4976462;28;20444;-91
2023/02/25 00:39:20;;;;;;;4.37;2.43;;;;;;;;;;4948396;28;20446;-91
2023/02/25 00:41:45;;;;;;;3.47;2.20;;;;;;;;;;4961583;28;20469;-90
2023/02/25 00:44:11;;;;;;;16.33;4.53;;;;;;;;;;4971257;28;21169;-91
2023/02/25 00:46:38;;;;;;;8.82;2.42;;;;;;;;;;4972908;28;20467;-91
2023/02/25 00:49:04;;;;;;;5.57;1.90;;;;;;;;;;4962801;28;20185;-91
2023/02/25 00:51:32;;;;;;;16.40;2.30;;;;;;;;;;4979166;28;20201;-94
2023/02/25 00:54:18;;;;;;;9.15;2.42;;;;;;;;;;4978898;28;20177;-94
2023/02/25 00:56:52;;;;;;;11.93;2.22;;;;;;;;;;4952730;28;20208;-93
2023/02/25 00:59:18;;;;;;;10.25;5.40;;;;;;;;;;4981537;23;20222;-76
2023/02/25 01:01:44;;;;;;;10.40;3.75;;;;;;;;;;4967726;28;20230;-77
2023/02/25 01:04:10;;;;;;;5.75;3.28;;;;;;;;;;4965731;28;20560;-77
2023/02/25 01:06:37;;;;;;;5.57;2.58;;;;;;;;;;4980065;28;20233;-77
2023/02/25 01:09:05;;;;;;;9.63;2.70;;;;;;;;;;4972928;28;20190;-75
2023/02/25 01:11:33;;;;;;;5.90;2.40;;;;;;;;;;4961308;28;20217;-77
2023/02/25 01:14:00;;;;;;;6.73;2.67;;;;;;;;;;4965810;28;20194;-77
2023/02/25 01:16:28;;;;;;;9.63;2.78;;;;;;;;;;4972587;28;20484;-75
2023/02/25 01:18:56;;;;;;;8.38;2.95;;;;;;;;;;4967691;28;20198;-75
2023/02/25 01:21:24;;;;;;;3.55;2.65;;;;;;;;;;4964016;28;20627;-77
2023/02/25 01:23:57;;;;;;;7.05;1.98;;;;;;;;;;4978334;28;20691;-76
2023/02/25 01:26:23;;;;;;;4.72;2.40;;;;;;;;;;4949742;28;20296;-77
2023/02/25 01:28:50;;;;;;;9.75;3.53;;;;;;;;;;4967336;28;20275;-77
2023/02/25 01:31:23;;;;;;;4.57;2.85;;;;;;;;;;4964551;28;20205;-76
2023/02/25 01:33:50;;;;;;;9.93;3.17;;;;;;;;;;4958527;28;20186;-76
2023/02/25 01:36:16;;;;;;;7.95;2.63;;;;;;;;;;4964699;28;20204;-76
2023/02/25 01:38:42;;;;;;;10.00;3.10;;;;;;;;;;4972508;28;20210;-76
2023/02/25 01:41:08;;;;;;;4.67;3.80;;;;;;;;;;4973517;28;20279;-76
2023/02/25 01:43:34;;;;;;;6.28;3.63;;;;;;;;;;4970624;28;20437;-77
2023/02/25 01:46:00;;;;;;;11.02;3.58;;;;;;;;;;4964598;28;20219;-76
2023/02/25 01:48:28;;;;;;;8.00;3.90;;;;;;;;;;4968303;28;20186;-76
2023/02/25 01:51:02;;;;;;;4.75;2.88;;;;;;;;;;4974534;28;20485;-77
2023/02/25 01:53:35;;;;;;;6.18;2.90;;;;;;;;;;4970414;28;20274;-77
2023/02/25 01:56:02;;;;;;;6.95;3.53;;;;;;;;;;4962665;28;20750;-76
2023/02/25 01:58:28;;;;;;;9.77;3.80;;;;;;;;;;4978136;28;20265;-77
2023/02/25 02:00:54;;;;;;;12.10;3.60;;;;;;;;;;4968113;28;20258;-77
2023/02/25 02:03:21;;;;;;;8.25;3.30;;;;;;;;;;4969778;28;20217;-75
2023/02/25 02:05:55;;;;;;;5.90;2.80;;;;;;;;;;4971787;28;20235;-78
2023/02/25 02:08:22;;;;;;;9.32;3.55;;;;;;;;;;4958746;28;20189;-76
2023/02/25 02:10:48;;;;;;;12.88;3.08;;;;;;;;;;4973344;28;20656;-76
2023/02/25 02:13:15;;;;;;;3.45;2.35;;;;;;;;;;4974146;28;20255;-78
2023/02/25 02:15:45;;;;;;;13.23;3.08;;;;;;;;;;4972250;28;20193;-76
2023/02/25 02:18:12;;;;;;;5.45;2.25;;;;;;;;;;4962580;28;20193;-76
2023/02/25 02:21:03;;;;;;;8.57;2.35;;;;;;;;;;4975829;28;20616;-75
2023/02/25 02:23:29;;;;;;;8.57;2.63;;;;;;;;;;4981825;28;20276;-76
2023/02/25 02:25:58;;;;;;;4.93;2.20;;;;;;;;;;4972703;28;20237;-76
2023/02/25 02:28:31;;;;;;;5.60;1.92;;;;;;;;;;4967626;28;20449;-75
2023/02/25 02:31:06;;;;;;;6.53;1.98;;;;;;;;;;4964725;28;20224;-76
2023/02/25 02:33:35;;;;;;;6.53;3.08;;;;;;;;;;4976095;28;20591;-76
2023/02/25 02:36:07;;;;;;;5.80;2.58;;;;;;;;;;4976299;28;20224;-76
2023/02/25 02:38:48;;;;;;;8.10;2.63;;;;;;;;;;4964846;28;20185;-76
2023/02/25 02:41:24;;;;;;;13.88;2.55;;;;;;;;;;4965023;28;20711;-77
2023/02/25 02:43:57;;;;;;;5.60;1.67;;;;;;;;;;4967186;28;20197;-76
2023/02/25 02:46:28;;;;;;;4.38;2.05;;;;;;;;;;4963164;28;20219;-76
2023/02/25 02:49:00;;;;;;;4.72;1.90;;;;;;;;;;4963871;28;20182;-76
2023/02/25 02:51:31;;;;;;;7.03;1.70;;;;;;;;;;4971169;28;20193;-76
2023/02/25 02:53:58;;;;;;;10.60;1.90;;;;;;;;;;4969489;28;20190;-77
2023/02/25 02:56:26;;;;;;;11.15;3.47;;;;;;;;;;4964049;28;20207;-75
2023/02/25 02:59:04;;;;;;;5.68;2.38;;;;;;;;;;4975403;28;20201;-78
2023/02/25 03:01:39;;;;;;;5.70;2.20;;;;;;;;;;4967690;28;20588;-76
2023/02/25 03:04:07;;;;;;;6.80;3.00;;;;;;;;;;4956445;28;20184;-76
2023/02/25 03:06:36;;;;;;;3.83;1.98;;;;;;;;;;4966852;28;20611;-75
2023/02/25 03:09:05;;;;;;;10.27;3.10;;;;;;;;;;4973707;28;20183;-77
2023/02/25 03:11:32;;;;;;;8.73;2.70;;;;;;;;;;4959763;28;20235;-76
2023/02/25 03:13:58;;;;;;;15.13;3.37;;;;;;;;;;4960291;28;20782;-76
2023/02/25 03:16:29;;;;;;;5.50;3.08;;;;;;;;;;4955410;28;20596;-77
2023/02/25 03:19:05;;;;;;;8.55;2.78;;;;;;;;;;4961662;28;20187;-75
2023/02/25 03:21:38;;;;;;;6.45;2.78;;;;;;;;;;4957697;28;20617;-76
2023/02/25 03:24:07;;;;;;;13.40;3.00;;;;;;;;;;4956988;28;20844;-76
2023/02/25 03:26:34;;;;;;;7.45;3.30;;;;;;;;;;4957828;28;20233;-75
2023/02/25 03:29:00;;;;;;;5.88;2.30;;;;;;;;;;4960801;28;20191;-76
2023/02/25 03:31:32;;;;;;;8.67;3.07;;;;;;;;;;4954279;28;20208;-76
2023/02/25 03:34:06;;;;;;;17.60;3.53;;;;;;;;;;4957004;28;20938;-75
2023/02/25 03:36:34;;;;;;;3.17;2.88;;;;;;;;;;4953661;28;20198;-77
2023/02/25 03:39:05;;;;;;;4.05;3.03;;;;;;;;;;4959814;28;20194;-75
2023/02/25 03:41:34;;;;;;;6.78;3.10;;;;;;;;;;4955220;28;20261;-76
2023/02/25 03:44:01;;;;;;;11.45;3.60;;;;;;;;;;4962041;28;20190;-77
2023/02/25 03:46:28;;;;;;;4.70;3.70;;;;;;;;;;4954077;28;20244;-75
2023/02/25 03:48:55;;;;;;;6.72;3.40;;;;;;;;;;4956785;28;20194;-75
2023/02/25 03:51:24;;;;;;;12.85;3.15;;;;;;;;;;4960063;28;20272;-76
2023/02/25 03:53:50;;;;;;;7.78;3.35;;;;;;;;;;4958371;28;20278;-76
2023/02/25 03:56:17;;;;;;;8.52;3.80;;;;;;;;;;4953798;28;20193;-75
2023/02/25 03:58:43;;;;;;;10.73;3.35;;;;;;;;;;4961378;28;20183;-76
2023/02/25 04:01:15;;;;;;;15.73;3.67;;;;;;;;;;4953753;28;20301;-75
2023/02/25 04:03:42;;;;;;;9.60;4.32;;;;;;;;;;4959681;28;20764;-77
2023/02/25 04:06:09;;;;;;;10.52;3.80;;;;;;;;;;4954866;28;20206;-76
2023/02/25 04:08:35;;;;;;;8.13;3.80;;;;;;;;;;4960785;28;20250;-76
2023/02/25 04:11:01;;;;;;;6.78;2.95;;;;;;;;;;4954347;28;20717;-76
2023/02/25 04:13:27;;;;;;;18.80;4.50;;;;;;;;;;4957109;28;20191;-76
2023/02/25 04:15:53;;;;;;;6.20;2.90;;;;;;;;;;4960077;28;20871;-76
2023/02/25 04:18:19;;;;;;;14.13;4.07;;;;;;;;;;4962076;28;20444;-75
2023/02/25 04:20:45;;;;;;;12.47;3.60;;;;;;;;;;4969453;28;20454;-76
2023/02/25 04:23:12;;;;;;;11.82;3.38;;;;;;;;;;4960092;28;21066;-76
2023/02/25 04:25:38;;;;;;;6.50;3.33;;;;;;;;;;4956758;28;20300;-76
2023/02/25 04:28:04;;;;;;;0.82;0.82;;;;;;;;;;4961288;28;20274;-78
2023/02/25 04:30:30;;;;;;;5.45;2.13;;;;;;;;;;4959852;28;20203;-76
2023/02/25 04:32:56;;;;;;;8.03;3.23;;;;;;;;;;4956249;28;20194;-77
2023/02/25 04:35:22;;;;;;;4.32;2.95;;;;;;;;;;4958028;28;20457;-77
2023/02/25 04:37:48;;;;;;;14.47;3.20;;;;;;;;;;4961425;28;20194;-76
2023/02/25 04:40:16;;;;;;;3.07;2.20;;;;;;;;;;4958436;28;20867;-77
2023/02/25 04:42:42;;;;;;;6.80;2.90;;;;;;;;;;4956278;28;20465;-78
2023/02/25 04:45:09;;;;;;;9.43;3.13;;;;;;;;;;4954166;28;20681;-77
2023/02/25 04:47:35;;;;;;;11.88;2.33;;;;;;;;;;4956101;28;20231;-77
2023/02/25 04:50:01;;;;;;;9.05;3.38;;;;;;;;;;4960375;28;20194;-78
2023/02/25 04:52:27;;;;;;;9.93;3.90;;;;;;;;;;4957222;28;20191;-77
2023/02/25 04:54:53;;;;;;;7.43;3.42;;;;;;;;;;4954865;28;20222;-77
2023/02/25 04:57:19;;;;;;;2.43;2.20;;;;;;;;;;4954180;28;20205;-77
2023/02/25 04:59:46;;;;;;;9.77;3.22;;;;;;;;;;4957518;28;20478;-77
2023/02/25 05:02:12;;;;;;;3.65;2.45;;;;;;;;;;4960598;28;20286;-79
2023/02/25 05:04:38;;;;;;;8.25;3.10;;;;;;;;;;4958173;28;20334;-77
2023/02/25 05:07:05;;;;;;;9.35;2.97;;;;;;;;;;4958958;28;20265;-77
2023/02/25 05:09:31;;;;;;;7.40;4.63;;;;;;;;;;4955956;28;20248;-77
2023/02/25 05:11:57;;;;;;;8.15;2.65;;;;;;;;;;4958175;28;20204;-77
2023/02/25 05:14:23;;;;;;;15.00;2.67;;;;;;;;;;4961790;28;20783;-76
2023/02/25 05:16:50;;;;;;;7.40;2.20;;;;;;;;;;4961044;28;20457;-78
2023/02/25 05:19:21;;;;;;;6.05;2.58;;;;;;;;;;4963960;28;20197;-77
2023/02/25 05:21:47;;;;;;;2.47;2.05;;;;;;;;;;4960679;28;20297;-78
2023/02/25 05:24:13;;;;;;;8.02;2.67;;;;;;;;;;4963463;28;20662;-79
2023/02/25 05:26:39;;;;;;;12.70;3.88;;;;;;;;;;4958266;28;20218;-78
2023/02/25 05:29:06;;;;;;;8.18;2.80;;;;;;;;;;4961591;28;20741;-79
2023/02/25 05:31:32;;;;;;;9.68;1.80;;;;;;;;;;4960648;28;20202;-77
2023/02/25 05:33:58;;;;;;;3.50;2.10;;;;;;;;;;4959263;28;20188;-78
2023/02/25 05:36:24;;;;;;;2.70;1.95;;;;;;;;;;4954750;28;20462;-77
2023/02/25 05:38:52;;;;;;;4.97;2.20;;;;;;;;;;4958916;28;20203;-77
2023/02/25 05:41:18;;;;;;;16.58;2.47;;;;;;;;;;4956410;28;20467;-76
2023/02/25 05:43:44;;;;;;;11.83;2.57;;;;;;;;;;4960321;28;20182;-77
2023/02/25 05:46:12;;;;;;;7.15;2.65;;;;;;;;;;4956698;28;20469;-77
2023/02/25 05:48:39;;;;;;;6.28;2.40;;;;;;;;;;4955295;28;20650;-79
2023/02/25 05:51:07;;;;;;;10.90;3.25;;;;;;;;;;4959632;28;20199;-75
2023/02/25 05:53:33;;;;;;;11.25;2.38;;;;;;;;;;4957542;28;20567;-77
2023/02/25 05:56:03;;;;;;;13.03;3.60;;;;;;;;;;4956853;28;20209;-77
2023/02/25 05:58:29;;;;;;;5.90;2.00;;;;;;;;;;4958666;28;20443;-76
2023/02/25 06:00:55;;;;;;;4.97;2.25;;;;;;;;;;4953851;28;20222;-77
2023/02/25 06:03:21;;;;;;;10.93;2.17;;;;;;;;;;4960754;28;20603;-76
2023/02/25 06:05:47;;;;;;;12.80;2.93;;;;;;;;;;4955269;28;20450;-77
2023/02/25 06:08:13;;;;;;;9.90;2.90;;;;;;;;;;4956275;28;21000;-77
2023/02/25 06:10:39;;;;;;;14.93;3.58;;;;;;;;;;4952181;28;20835;-77
2023/02/25 06:13:09;;;;;;;7.03;2.50;;;;;;;;;;4954294;28;20558;-76
2023/02/25 06:15:36;;;;;;;7.38;2.83;;;;;;;;;;4956715;28;20694;-76
2023/02/25 06:18:03;;;;;;;13.57;2.20;;;;;;;;;;4961770;28;20218;-77
2023/02/25 06:20:29;;;;;;;2.60;2.40;;;;;;;;;;4965345;28;20846;-78
2023/02/25 06:22:55;;;;;;;6.82;2.53;;;;;;;;;;4962491;28;20298;-77
2023/02/25 06:25:21;;;;;;;5.97;2.35;;;;;;;;;;4956926;28;20701;-77
2023/02/25 06:27:48;;;;;;;8.32;3.55;;;;;;;;;;4958551;28;20197;-77
2023/02/25 06:30:14;;;;;;;6.72;2.13;;;;;;;;;;4960028;28;20317;-77
2023/02/25 06:32:40;;;;;;;8.60;2.90;;;;;;;;;;4959331;28;20198;-77
2023/02/25 06:35:06;;;;;;;8.67;2.90;;;;;;;;;;4954392;28;20186;-76
2023/02/25 06:37:33;;;;;;;7.03;3.33;;;;;;;;;;4951051;28;20430;-77
2023/02/25 06:39:59;;;;;;;10.30;2.88;;;;;;;;;;4951154;28;20217;-77
2023/02/25 06:42:25;;;;;;;12.57;2.90;;;;;;;;;;4949134;28;20961;-77
2023/02/25 06:44:51;;;;;;;7.30;2.60;;;;;;;;;;4952832;28;20488;-76
2023/02/25 06:47:17;;;;;;;3.20;2.83;;;;;;;;;;4958067;28;20253;-77
2023/02/25 06:49:43;;;;;;;10.63;3.20;;;;;;;;;;4955296;28;20214;-76
2023/02/25 06:52:09;;;;;;;8.23;3.23;;;;;;;;;;4958376;28;20640;-77
2023/02/25 06:54:35;;;;;;;3.85;2.60;;;;;;;;;;4958288;28;20448;-76
2023/02/25 06:57:01;;;;;;;6.03;2.47;;;;;;;;;;4952897;28;20311;-77
2023/02/25 06:59:27;;;;;;;8.48;2.45;;;;;;;;;;4954365;28;20210;-77
2023/02/25 07:01:53;;;;;;;9.13;2.90;;;;;;;;;;4953265;28;20221;-78
2023/02/25 07:04:20;;;;;;;7.60;3.50;;;;;;;;;;4954796;28;20445;-78
2023/02/25 07:06:46;;;;;;;14.13;3.40;;;;;;;;;;4958585;28;20460;-78
2023/02/25 07:09:12;;;;;;;7.40;2.90;;;;;;;;;;4961995;28;20433;-77
2023/02/25 07:11:38;;;;;;;7.38;2.50;;;;;;;;;;4956078;28;20452;-78
2023/02/25 07:14:05;;;;;;;12.23;2.30;;;;;;;;;;4955741;28;20201;-77
2023/02/25 07:16:33;;;;;;;8.63;2.85;;;;;;;;;;4955187;28;20281;-82
2023/02/25 07:19:01;;;;;;;6.22;2.95;;;;;;;;;;4957274;28;20190;-84
2023/02/25 07:21:29;;;;;;;10.40;3.97;;;;;;;;;;4954666;28;20186;-83
2023/02/25 07:23:55;;;;;;;10.00;3.80;;;;;;;;;;4956799;28;20197;-76
2023/02/25 07:26:21;;;;;;;4.70;3.00;;;;;;;;;;4954379;28;20273;-76
2023/02/25 07:28:47;;;;;;;7.43;2.70;;;;;;;;;;4958692;28;20192;-76
2023/02/25 07:31:15;;;;;;;7.30;3.40;;;;;;;;;;4958965;28;20190;-76
2023/02/25 07:33:42;;;;;;;14.60;3.70;;;;;;;;;;4958337;28;20474;-77
2023/02/25 07:36:08;;;;;;;16.40;2.63;;;;;;;;;;4955241;28;20452;-76
2023/02/25 07:38:34;;;;;;;8.40;3.47;;;;;;;;;;4944776;28;20207;-76
2023/02/25 07:41:04;;;;;;;8.00;3.43;;;;;;;;;;4958208;28;20189;-76
2023/02/25 07:43:30;;;;;;;7.68;2.80;;;;;;;;;;4954416;28;20506;-76
2023/02/25 07:45:56;;;;;;;11.07;4.03;;;;;;;;;;4954369;28;20225;-78
2023/02/25 07:48:22;;;;;;;13.73;3.35;;;;;;;;;;4953652;28;20249;-76
2023/02/25 07:50:48;;;;;;;13.47;3.43;;;;;;;;;;4954156;28;20592;-78
2023/02/25 07:53:14;;;;;;;7.67;3.43;;;;;;;;;;4954818;28;20505;-76
2023/02/25 07:55:44;;;;;;;7.63;3.60;;;;;;;;;;4959251;28;20574;-77
2023/02/25 07:58:10;;;;;;;14.40;4.07;;;;;;;;;;4962063;28;21049;-78
2023/02/25 08:00:37;;;;;;;7.57;2.95;;;;;;;;;;4960410;28;20691;-78
2023/02/25 08:03:04;;;;;;;4.82;3.03;;;;;;;;;;4958999;28;20210;-78
2023/02/25 08:05:32;;;;;;;17.38;3.85;;;;;;;;;;4958142;28;20272;-77
2023/02/25 08:07:58;;;;;;;8.90;3.30;;;;;;;;;;4956067;28;20285;-78
2023/02/25 08:10:24;;;;;;;24.37;3.20;;;;;;;;;;4969184;28;20257;-77
2023/02/25 08:12:50;;;;;;;10.57;3.15;;;;;;;;;;4982419;28;20444;-83
2023/02/25 08:15:17;;;;;;;5.87;2.03;;;;;;;;;;4996675;28;20186;-82
2023/02/25 08:17:43;;;;;;;7.70;4.07;;;;;;;;;;4958075;28;20485;-76
2023/02/25 08:20:09;;;;;;;7.10;2.67;;;;;;;;;;4959099;28;20186;-79
2023/02/25 08:22:35;;;;;;;5.75;1.77;;;;;;;;;;4958151;28;20488;-78
2023/02/25 08:25:01;;;;;;;18.77;3.92;;;;;;;;;;4961072;28;20185;-79
2023/02/25 08:27:27;;;;;;;11.85;2.90;;;;;;;;;;4971654;28;20202;-77
2023/02/25 08:29:53;;;;;;;5.18;2.28;;;;;;;;;;4959833;28;20183;-78
2023/02/25 08:32:21;;;;;;;10.32;2.30;;;;;;;;;;4955294;28;20676;-78
2023/02/25 08:34:49;;;;;;;4.10;2.47;;;;;;;;;;4961420;28;20189;-78
2023/02/25 08:37:16;;;;;;;15.35;2.47;;;;;;;;;;4971445;28;20197;-87
2023/02/25 08:39:42;;;;;;;12.05;2.42;;;;;;;;;;4973294;28;20186;-85
2023/02/25 08:42:10;;;;;;;5.75;2.25;;;;;;;;;;4959628;28;21311;-76
2023/02/25 08:44:36;;;;;;;5.95;2.10;;;;;;;;;;4960303;28;20205;-77
2023/02/25 08:47:03;;;;;;;13.32;2.55;;;;;;;;;;4952374;28;20193;-76
2023/02/25 08:49:30;;;;;;;10.90;2.78;;;;;;;;;;4952911;28;20170;-78
2023/02/25 08:51:56;;;;;;;5.30;2.97;;;;;;;;;;4949828;28;20569;-77
2023/02/25 08:54:22;;;;;;;3.50;2.23;;;;;;;;;;4953749;28;20268;-79
2023/02/25 08:56:50;;;;;;;4.50;2.55;;;;;;;;;;4952515;28;20453;-78
2023/02/25 08:59:16;;;;;;;4.10;1.42;;;;;;;;;;4954381;28;20184;-78
2023/02/25 09:01:47;;;;;;;9.77;2.27;;;;;;;;;;4953901;28;20206;-79
2023/02/25 09:04:17;;;;;;;7.07;2.38;;;;;;;;;;4952028;28;20460;-79
2023/02/25 09:06:46;;;;;;;9.73;3.70;;;;;;;;;;4955439;28;20186;-79
2023/02/25 09:09:12;;;;;;;9.10;2.13;;;;;;;;;;4951401;28;20954;-78
2023/02/25 09:11:38;;;;;;;7.95;2.10;;;;;;;;;;4951673;28;20461;-78
2023/02/25 09:14:04;;;;;;;4.20;2.10;;;;;;;;;;4952099;28;20205;-78
2023/02/25 09:16:30;;;;;;;5.55;2.15;;;;;;;;;;4975410;28;20181;-87
2023/02/25 09:18:57;;;;;;;12.10;3.20;;;;;;;;;;4986342;28;20170;-82
2023/02/25 09:21:23;;;;;;;7.53;2.80;;;;;;;;;;4973745;28;20676;-85
2023/02/25 09:23:52;;;;;;;6.80;2.10;;;;;;;;;;4957750;28;20439;-75
2023/02/25 09:26:19;;;;;;;6.50;3.10;;;;;;;;;;4957018;28;20437;-78
2023/02/25 09:28:46;;;;;;;3.70;1.67;;;;;;;;;;4950251;28;20584;-76
2023/02/25 09:31:12;;;;;;;10.70;2.40;;;;;;;;;;4955648;28;20182;-77
2023/02/25 09:33:40;;;;;;;7.03;1.87;;;;;;;;;;4950661;28;21237;-77
2023/02/25 09:36:08;;;;;;;6.82;1.98;;;;;;;;;;4951469;28;20441;-76
2023/02/25 09:38:37;;;;;;;5.40;2.13;;;;;;;;;;4955854;28;20557;-77
2023/02/25 09:41:04;;;;;;;8.82;2.45;;;;;;;;;;4955183;28;20205;-76
2023/02/25 09:43:38;;;;;;;2.15;1.70;;;;;;;;;;4953679;28;20241;-77
2023/02/25 09:46:07;;;;;;;4.80;2.33;;;;;;;;;;4957720;28;20230;-77
2023/02/25 09:48:35;;;;;;;9.20;3.28;;;;;;;;;;4951520;28;20237;-75
2023/02/25 09:51:06;;;;;;;3.93;2.20;;;;;;;;;;4965438;28;20222;-76
2023/02/25 09:53:42;;;;;;;8.40;3.73;;;;;;;;;;4965030;28;20504;-75
2023/02/25 09:56:10;;;;;;;3.25;3.05;;;;;;;;;;4972522;28;20846;-86
2023/02/25 09:58:42;;;;;;;8.73;4.07;;;;;;;;;;4992460;28;20202;-78
2023/02/25 10:01:11;;;;;;;3.47;1.70;;;;;;;;;;4957266;28;20571;-77
2023/02/25 10:03:54;;;;;;;2.37;1.00;;;;;;;;;;4962223;28;20226;-76
2023/02/25 10:06:32;;;;;;;1.57;1.47;;;;;;;;;;4954678;28;21010;-76
2023/02/25 10:09:02;;;;;;;2.88;1.80;;;;;;;;;;4954421;28;20819;-76
2023/02/25 10:11:36;;;;;;;1.10;1.10;;;;;;;;;;4950380;28;20185;-77
2023/02/25 10:14:25;;;;;;;2.15;1.40;;;;;;;;;;4949743;28;20517;-75
2023/02/25 10:16:53;;;;;;;4.35;2.22;;;;;;;;;;4940788;28;20186;-76
2023/02/25 10:19:20;;;;;;;5.93;1.58;;;;;;;;;;4947695;28;20193;-76
2023/02/25 10:21:56;;;;;;;1.92;1.92;;;;;;;;;;4950403;28;20281;-76
2023/02/25 10:24:27;;;;;;;1.20;1.20;;;;;;;;;;4947236;28;20221;-75
2023/02/25 10:27:02;;;;;;;1.52;1.40;;;;;;;;;;4950751;28;20213;-75
2023/02/25 10:29:38;;;;;;;1.70;1.50;;;;;;;;;;4950730;28;20320;-76
2023/02/25 10:32:24;;;;;;;0.93;0.93;;;;;;;;;;4959309;28;20236;-76
2023/02/25 10:34:52;;;;;;;1.20;1.20;;;;;;;;;;4960440;28;20189;-77
2023/02/25 10:37:34;;;;;;;1.33;1.23;;;;;;;;;;4968809;28;20533;-75
2023/02/25 10:40:02;;;;;;;1.40;1.15;;;;;;;;;;4959477;28;20200;-77
2023/02/25 10:42:29;;;;;;;1.73;1.63;;;;;;;;;;4955626;28;20249;-75
2023/02/25 10:44:59;;;;;;;2.13;1.10;;;;;;;;;;4961817;28;20454;-87
2023/02/25 10:47:36;;;;;;;2.00;1.87;;;;;;;;;;4971315;28;20553;-75
2023/02/25 10:50:17;;;;;;;2.43;2.23;;;;;;;;;;4943316;28;20948;-76
2023/02/25 10:52:55;;;;;;;2.23;2.10;;;;;;;;;;4953782;28;20472;-78
2023/02/25 10:55:29;;;;;;;1.50;1.30;;;;;;;;;;4950879;28;20516;-75
2023/02/25 10:57:56;;;;;;;2.10;1.93;;;;;;;;;;4972457;28;20526;-82
2023/02/25 11:00:25;;;;;;;1.50;1.50;;;;;;;;;;4953175;28;20509;-76
2023/02/25 11:02:52;;;;;;;3.37;1.73;;;;;;;;;;4957755;28;20464;-75
2023/02/25 11:05:30;;;;;;;2.20;2.10;;;;;;;;;;4951864;28;20440;-76
2023/02/25 11:07:56;;;;;;;2.10;2.00;;;;;;;;;;4955104;28;20539;-75
2023/02/25 11:10:25;;;;;;;3.27;2.73;;;;;;;;;;4951986;28;20465;-75
2023/02/25 11:12:56;;;;;;;7.30;2.50;;;;;;;;;;4956545;28;20532;-75
2023/02/25 11:15:25;;;;;;;4.10;3.03;;;;;;;;;;4946326;28;20445;-75
2023/02/25 11:17:55;;;;;;;2.93;2.47;;;;;;;;;;4952140;28;20825;-75
2023/02/25 11:20:33;;;;;;;3.23;3.13;;;;;;;;;;4954034;28;20547;-75
2023/02/25 11:22:59;;;;;;;4.40;4.00;;;;;;;;;;4946338;28;20570;-75
2023/02/25 11:25:52;;;;;;;7.70;3.97;;;;;;;;;;4954975;28;20456;-76
2023/02/25 11:28:32;;;;;;;5.50;3.60;;;;;;;;;;4945080;28;20201;-76
2023/02/25 11:31:06;;;;;;;4.03;2.95;;;;;;;;;;4953561;28;21108;-76
2023/02/25 11:33:37;;;;;;;2.70;2.70;;;;;;;;;;4950852;28;20262;-76
2023/02/25 11:36:03;;;;;;;2.73;2.53;;;;;;;;;;4954733;28;20521;-75
2023/02/25 11:38:34;;;;;;;4.00;3.13;;;;;;;;;;4948512;28;20520;-74
2023/02/25 11:41:00;;;;;;;2.95;2.88;;;;;;;;;;4962234;28;20944;-75
2023/02/25 11:43:33;;;;;;;2.55;2.55;;;;;;;;;;4957224;28;20217;-76
2023/02/25 11:46:02;;;;;;;2.00;2.00;;;;;;;;;;4958044;28;20207;-74
2023/02/25 11:48:30;;;;;;;2.17;2.00;;;;;;;;;;4945201;28;20532;-75
2023/02/25 11:51:00;;;;;;;1.67;1.67;;;;;;;;;;4950514;28;20548;-75
2023/02/25 11:53:38;;;;;;;4.63;1.73;;;;;;;;;;4949712;28;20942;-76
2023/02/25 11:56:08;;;;;;;2.63;2.53;;;;;;;;;;4946969;28;20456;-77
2023/02/25 11:58:37;;;;;;;2.00;1.90;;;;;;;;;;4953875;28;21262;-74
2023/02/25 12:01:06;;;;;;;1.90;1.80;;;;;;;;;;4952416;28;20831;-77
2023/02/25 12:03:45;;;;;;;1.70;1.60;;;;;;;;;;4954468;28;20494;-84
2023/02/25 12:06:11;;;;;;;2.30;2.10;;;;;;;;;;4965577;28;20441;-80
2023/02/25 12:08:46;;;;;;;2.30;1.37;;;;;;;;;;4954859;28;20592;-76
2023/02/25 12:11:15;;;;;;;1.97;1.87;;;;;;;;;;4949065;28;20685;-78
2023/02/25 12:14:10;;;;;;;8.70;2.00;;;;;;;;;;4951360;28;20457;-74
2023/02/25 12:17:04;;;;;;;6.90;2.80;;;;;;;;;;4925113;28;20465;-74
2023/02/25 12:19:36;;;;;;;7.43;2.00;;;;;;;;;;4947197;28;20458;-75
2023/02/25 12:22:19;;;;;;;4.00;1.57;;;;;;;;;;4956295;28;20580;-76
2023/02/25 12:24:51;;;;;;;4.53;1.63;;;;;;;;;;4954780;28;20460;-74
2023/02/25 12:27:35;;;;;;;6.10;1.90;;;;;;;;;;4953789;28;20525;-75
2023/02/25 12:30:20;;;;;;;2.03;1.75;;;;;;;;;;4951303;28;20554;-77
2023/02/25 12:32:47;;;;;;;7.47;2.30;;;;;;;;;;4944166;28;20248;-78
2023/02/25 12:35:32;;;;;;;3.17;1.87;;;;;;;;;;4961557;28;20467;-78
2023/02/25 12:37:58;;;;;;;2.53;2.20;;;;;;;;;;4960958;28;20463;-74
2023/02/25 12:40:31;;;;;;;2.50;2.00;;;;;;;;;;4954994;28;20453;-77
2023/02/25 12:43:09;;;;;;;2.40;2.10;;;;;;;;;;4950938;28;20473;-76
2023/02/25 12:45:54;;;;;;;2.40;1.70;;;;;;;;;;4952580;28;20468;-78
2023/02/25 12:48:23;;;;;;;2.80;2.40;;;;;;;;;;4957997;28;20512;-76
2023/02/25 12:51:04;;;;;;;2.27;2.13;;;;;;;;;;4953962;28;20452;-76
2023/02/25 12:53:54;;;;;;;4.20;1.80;;;;;;;;;;4950865;28;20930;-74
2023/02/25 12:56:26;;;;;;;2.53;1.90;;;;;;;;;;4951944;28;20505;-76
2023/02/25 12:59:04;;;;;;;2.33;1.50;;;;;;;;;;4951780;28;20493;-75
2023/02/25 13:01:42;;;;;;;3.93;3.63;;;;;;;;;;4947368;28;20454;-77
2023/02/25 13:04:27;;;;;;;6.10;2.00;;;;;;;;;;4943004;28;20504;-74
2023/02/25 13:06:53;;;;;;;4.03;2.10;;;;;;;;;;4948280;28;20450;-75
2023/02/25 13:09:32;;;;;;;3.33;1.67;;;;;;;;;;4950530;28;20448;-75
2023/02/25 13:11:58;;;;;;;2.00;1.57;;;;;;;;;;4956301;28;20449;-75
2023/02/25 13:14:28;;;;;;;1.87;1.63;;;;;;;;;;4946538;28;20485;-84
2023/02/25 13:17:13;;;;;;;1.50;1.40;;;;;;;;;;4971490;28;20457;-84
2023/02/25 13:19:51;;;;;;;2.83;1.70;;;;;;;;;;4965574;28;20572;-76
2023/02/25 13:22:26;;;;;;;2.63;2.10;;;;;;;;;;4966521;28;20483;-75
2023/02/25 13:24:58;;;;;;;1.73;1.50;;;;;;;;;;4962609;28;21199;-77
2023/02/25 13:27:42;;;;;;;3.80;2.10;;;;;;;;;;4964720;28;20981;-76
2023/02/25 13:30:11;;;;;;;2.67;2.47;;;;;;;;;;4961884;28;20421;-76
2023/02/25 13:32:49;;;;;;;1.30;1.30;;;;;;;;;;4965759;28;20426;-76
2023/02/25 13:35:15;;;;;;;5.77;1.50;;;;;;;;;;4971185;28;20436;-75
2023/02/25 13:37:45;;;;;;;2.10;2.00;;;;;;;;;;4973855;28;20487;-76
2023/02/25 13:40:43;;;;;;;6.17;2.40;;;;;;;;;;4966877;28;20541;-81
2023/02/25 13:43:28;;;;;;;3.30;2.03;;;;;;;;;;4946069;28;20681;-75
2023/02/25 13:46:02;;;;;;;1.33;1.33;;;;;;;;;;4968555;28;20499;-76
2023/02/25 13:48:43;;;;;;;1.77;1.70;;;;;;;;;;4964133;28;20441;-73
2023/02/25 13:51:23;;;;;;;2.10;1.30;;;;;;;;;;4967109;28;20544;-73
2023/02/25 13:54:06;;;;;;;1.57;1.57;;;;;;;;;;4969011;28;20452;-74
2023/02/25 13:56:49;;;;;;;2.90;1.03;;;;;;;;;;4957300;28;20480;-73
2023/02/25 13:59:15;;;;;;;4.60;1.73;;;;;;;;;;4966625;28;20665;-73
2023/02/25 14:01:53;;;;;;;1.60;1.10;;;;;;;;;;4965403;28;20449;-83
2023/02/25 14:04:35;;;;;;;1.20;1.20;;;;;;;;;;4988240;28;20432;-85
2023/02/25 14:07:10;;;;;;;3.40;1.20;;;;;;;;;;4985050;28;20461;-80
2023/02/25 14:09:39;;;;;;;1.07;1.07;;;;;;;;;;4960006;28;21089;-73
2023/02/25 14:12:24;;;;;;;3.30;1.30;;;;;;;;;;4955404;28;20441;-73
2023/02/25 14:15:02;;;;;;;1.83;1.30;;;;;;;;;;4963675;28;20721;-74
2023/02/25 14:17:48;;;;;;;2.23;1.17;;;;;;;;;;4961793;28;20443;-74
2023/02/25 14:20:23;;;;;;;1.00;1.00;;;;;;;;;;4962458;28;20459;-73
2023/02/25 14:22:53;;;;;;;2.10;1.97;;;;;;;;;;4965806;28;20484;-75
2023/02/25 14:25:22;;;;;;;3.87;2.77;;;;;;;;;;4965210;28;20444;-75
2023/02/25 14:28:11;;;;;;;6.50;2.17;;;;;;;;;;4964195;28;20420;-78
2023/02/25 14:30:56;;;;;;;4.07;1.17;;;;;;;;;;4961152;28;20451;-75
2023/02/25 14:33:25;;;;;;;1.43;1.30;;;;;;;;;;4980524;28;20436;-76
2023/02/25 14:36:07;;;;;;;2.40;1.90;;;;;;;;;;4989921;28;20556;-74
2023/02/25 14:38:54;;;;;;;23.17;16.37;;;;;;;;;;4975741;28;20534;-77
2023/02/25 14:41:35;;;;;;;5.23;1.30;;;;;;;;;;4966846;28;20870;-75
2023/02/25 14:44:04;;;;;;;1.97;1.83;;;;;;;;;;4961606;28;20453;-74
2023/02/25 14:46:39;;;;;;;1.50;1.40;;;;;;;;;;4963354;28;20461;-74
2023/02/25 14:49:20;;;;;;;3.23;1.50;;;;;;;;;;4964895;28;20459;-75
2023/02/25 14:52:06;;;;;;;0.97;0.90;;;;;;;;;;4960770;28;20450;-76
2023/02/25 14:54:37;;;;;;;2.90;1.83;;;;;;;;;;4958231;28;20460;-75
2023/02/25 14:57:14;;;;;;;1.33;0.90;;;;;;;;;;4962317;28;20441;-75